Hlavní strana
METAR-TAF:

METAR-TAF

Letiště :

Dubaj, Spojené arabské emiráty

Mezinárodní letiště Dubaj

zeměpisná šířka: 25-15-10N, zeměpisná délka: 055-21-52E, výška: 8 m

Aktuální stav počasí

Zpráva byla vytvořena před 37 minutami, v 18:00 UTC
Západní vítr 8 kt
Teplota 20°C
Vlhkost vzduchu 53%
Tlak 1018 hPa
Viditelnost 10 km a více
Žádná oblačnost pod 1500 m, nevyskytují se cumulonimby.

METAR: OMDB 211800Z 27008KT CAVOK 20/10 Q1018 NOSIG

Čas: 22:37 (18:37 UTC)

Předpověď počasí

Zpráva byla vytvořena před 1 hodinou a 36 minutami, v 17:01 UTC
Předpověď platná od 21 v 18 UTC do 23 v 00 UTC
Západní vítr 10 kt
Viditelnost 10 km a více
Skoro jasno ve výšce 4000 ft
Změna
od 21 v 22 UTC do 22 v 00 UTC
Jihojihozápadní vítr 5 kt
Změna
od 22 v 09 UTC do 22 v 11 UTC
Severoseverozápadní vítr 12 kt
Změna
od 22 v 15 UTC do 22 v 17 UTC
Východní vítr 5 kt

TAF: OMDB 211701Z 2118/2300 28010KT 9999 FEW040 BECMG 2122/2200 20005KT BECMG 2209/2211 33012KT BECMG 2215/2217 08005KT

Stav a předpovědi počasí z více než 4 000 letišť (zprávy METAR a TAF).

Červené a žluté tečky na mapě představují dostupné meteorologické stanice.

Když kurzor umístíte na tečku, zobrazí se název stanice.

Pak kliknutím zobrazíte stav a předpověď počasí.

Chcete-li změnit mapu, kliknutím na zelené tlačítko se znaménkem +mapu přiblížíte, kliknutím na zelené tlačítko se znaménkem – mapu oddálíte a kliknutím na zelené šipky přejdete na sousední mapy.


METAR-TAF: